sensor_id;sensor_type;location;lat;lon;timestamp;P1;durP1;ratioP1;P2;durP2;ratioP2
22007;SDS011;11168;56.976;24.168;2023-06-14T00:00:37;7.38;;;4.47;;
22007;SDS011;11168;56.976;24.168;2023-06-14T00:03:07;9.70;;;4.20;;
22007;SDS011;11168;56.976;24.168;2023-06-14T00:05:42;7.13;;;4.45;;
22007;SDS011;11168;56.976;24.168;2023-06-14T00:08:09;8.50;;;4.30;;
22007;SDS011;11168;56.976;24.168;2023-06-14T00:10:37;9.05;;;4.50;;
22007;SDS011;11168;56.976;24.168;2023-06-14T00:13:05;13.05;;;4.75;;
22007;SDS011;11168;56.976;24.168;2023-06-14T00:15:33;9.52;;;4.95;;
22007;SDS011;11168;56.976;24.168;2023-06-14T00:18:01;7.93;;;4.40;;
22007;SDS011;11168;56.976;24.168;2023-06-14T00:20:29;5.38;;;4.28;;
22007;SDS011;11168;56.976;24.168;2023-06-14T00:22:59;7.93;;;4.20;;
22007;SDS011;11168;56.976;24.168;2023-06-14T00:25:26;9.07;;;4.60;;
22007;SDS011;11168;56.976;24.168;2023-06-14T00:27:56;7.43;;;4.40;;
22007;SDS011;11168;56.976;24.168;2023-06-14T00:30:24;9.05;;;4.40;;
22007;SDS011;11168;56.976;24.168;2023-06-14T00:32:51;8.35;;;4.30;;
22007;SDS011;11168;56.976;24.168;2023-06-14T00:35:18;11.52;;;4.68;;
22007;SDS011;11168;56.976;24.168;2023-06-14T00:37:45;9.85;;;4.95;;
22007;SDS011;11168;56.976;24.168;2023-06-14T00:40:12;10.73;;;4.72;;
22007;SDS011;11168;56.976;24.168;2023-06-14T00:42:40;6.18;;;4.43;;
22007;SDS011;11168;56.976;24.168;2023-06-14T00:45:07;12.10;;;5.20;;
22007;SDS011;11168;56.976;24.168;2023-06-14T00:47:35;8.93;;;4.60;;
22007;SDS011;11168;56.976;24.168;2023-06-14T00:50:06;6.93;;;4.15;;
22007;SDS011;11168;56.976;24.168;2023-06-14T00:52:34;6.95;;;4.63;;
22007;SDS011;11168;56.976;24.168;2023-06-14T00:55:01;8.20;;;5.15;;
22007;SDS011;11168;56.976;24.168;2023-06-14T00:57:28;9.35;;;4.50;;
22007;SDS011;11168;56.976;24.168;2023-06-14T00:59:56;10.80;;;4.97;;
22007;SDS011;11168;56.976;24.168;2023-06-14T01:02:23;9.48;;;4.72;;
22007;SDS011;11168;56.976;24.168;2023-06-14T01:04:53;10.90;;;4.60;;
22007;SDS011;11168;56.976;24.168;2023-06-14T01:13:02;7.30;;;4.53;;
22007;SDS011;11168;56.976;24.168;2023-06-14T01:15:35;8.48;;;4.38;;
22007;SDS011;11168;56.976;24.168;2023-06-14T01:18:03;9.13;;;4.45;;
22007;SDS011;11168;56.976;24.168;2023-06-14T01:20:32;8.50;;;4.13;;
22007;SDS011;11168;56.976;24.168;2023-06-14T01:23:04;9.63;;;4.20;;
22007;SDS011;11168;56.976;24.168;2023-06-14T01:25:30;9.32;;;4.28;;
22007;SDS011;11168;56.976;24.168;2023-06-14T01:30:37;8.00;;;4.05;;
22007;SDS011;11168;56.976;24.168;2023-06-14T01:33:12;5.28;;;3.90;;
22007;SDS011;11168;56.976;24.168;2023-06-14T01:35:42;11.25;;;4.30;;
22007;SDS011;11168;56.976;24.168;2023-06-14T01:38:11;6.75;;;3.60;;
22007;SDS011;11168;56.976;24.168;2023-06-14T01:40:39;8.75;;;4.00;;
22007;SDS011;11168;56.976;24.168;2023-06-14T01:43:10;12.07;;;4.10;;
22007;SDS011;11168;56.976;24.168;2023-06-14T01:45:40;7.03;;;3.80;;
22007;SDS011;11168;56.976;24.168;2023-06-14T01:48:08;6.22;;;3.50;;
22007;SDS011;11168;56.976;24.168;2023-06-14T01:50:36;6.93;;;3.97;;
22007;SDS011;11168;56.976;24.168;2023-06-14T01:53:03;6.97;;;3.72;;
22007;SDS011;11168;56.976;24.168;2023-06-14T01:55:34;8.73;;;4.00;;
22007;SDS011;11168;56.976;24.168;2023-06-14T01:58:04;5.50;;;3.33;;
22007;SDS011;11168;56.976;24.168;2023-06-14T02:00:32;8.98;;;4.53;;
22007;SDS011;11168;56.976;24.168;2023-06-14T02:02:59;5.82;;;3.88;;
22007;SDS011;11168;56.976;24.168;2023-06-14T02:05:26;7.15;;;3.67;;
22007;SDS011;11168;56.976;24.168;2023-06-14T02:07:53;7.60;;;3.80;;
22007;SDS011;11168;56.976;24.168;2023-06-14T02:10:20;10.18;;;3.67;;
22007;SDS011;11168;56.976;24.168;2023-06-14T02:13:11;9.45;;;4.40;;
22007;SDS011;11168;56.976;24.168;2023-06-14T02:15:38;7.28;;;3.78;;
22007;SDS011;11168;56.976;24.168;2023-06-14T02:18:07;7.22;;;3.47;;
22007;SDS011;11168;56.976;24.168;2023-06-14T02:20:34;10.75;;;4.10;;
22007;SDS011;11168;56.976;24.168;2023-06-14T02:23:01;7.20;;;3.70;;
22007;SDS011;11168;56.976;24.168;2023-06-14T02:25:29;7.53;;;3.20;;
22007;SDS011;11168;56.976;24.168;2023-06-14T02:27:56;5.95;;;3.20;;
22007;SDS011;11168;56.976;24.168;2023-06-14T02:30:23;5.80;;;3.60;;
22007;SDS011;11168;56.976;24.168;2023-06-14T02:32:50;7.38;;;3.55;;
22007;SDS011;11168;56.976;24.168;2023-06-14T02:35:19;7.70;;;3.40;;
22007;SDS011;11168;56.976;24.168;2023-06-14T02:37:48;8.68;;;3.58;;
22007;SDS011;11168;56.976;24.168;2023-06-14T02:40:16;10.10;;;3.33;;
22007;SDS011;11168;56.976;24.168;2023-06-14T02:42:43;12.05;;;3.63;;
22007;SDS011;11168;56.976;24.168;2023-06-14T02:45:10;7.15;;;3.55;;
22007;SDS011;11168;56.976;24.168;2023-06-14T02:47:37;6.47;;;3.25;;
22007;SDS011;11168;56.976;24.168;2023-06-14T02:50:04;7.80;;;3.22;;
22007;SDS011;11168;56.976;24.168;2023-06-14T02:52:32;8.10;;;3.20;;
22007;SDS011;11168;56.976;24.168;2023-06-14T02:54:59;5.13;;;3.25;;
22007;SDS011;11168;56.976;24.168;2023-06-14T02:57:26;7.65;;;3.00;;
22007;SDS011;11168;56.976;24.168;2023-06-14T02:59:53;7.68;;;3.22;;
22007;SDS011;11168;56.976;24.168;2023-06-14T03:02:21;5.70;;;3.20;;
22007;SDS011;11168;56.976;24.168;2023-06-14T03:04:48;5.65;;;3.15;;
22007;SDS011;11168;56.976;24.168;2023-06-14T03:07:15;9.55;;;3.70;;
22007;SDS011;11168;56.976;24.168;2023-06-14T03:09:48;5.05;;;3.67;;
22007;SDS011;11168;56.976;24.168;2023-06-14T03:12:16;5.65;;;3.55;;
22007;SDS011;11168;56.976;24.168;2023-06-14T03:14:42;9.20;;;3.28;;
22007;SDS011;11168;56.976;24.168;2023-06-14T03:17:37;9.95;;;3.60;;
22007;SDS011;11168;56.976;24.168;2023-06-14T03:20:05;7.97;;;3.20;;
22007;SDS011;11168;56.976;24.168;2023-06-14T03:22:35;8.70;;;3.40;;
22007;SDS011;11168;56.976;24.168;2023-06-14T03:25:02;6.22;;;3.50;;
22007;SDS011;11168;56.976;24.168;2023-06-14T03:27:31;7.13;;;3.63;;
22007;SDS011;11168;56.976;24.168;2023-06-14T03:29:58;8.18;;;3.08;;
22007;SDS011;11168;56.976;24.168;2023-06-14T03:32:26;5.50;;;3.13;;
22007;SDS011;11168;56.976;24.168;2023-06-14T03:34:53;11.68;;;3.72;;
22007;SDS011;11168;56.976;24.168;2023-06-14T03:37:20;8.10;;;3.50;;
22007;SDS011;11168;56.976;24.168;2023-06-14T03:39:47;5.55;;;3.78;;
22007;SDS011;11168;56.976;24.168;2023-06-14T03:42:14;7.43;;;3.70;;
22007;SDS011;11168;56.976;24.168;2023-06-14T03:44:41;9.30;;;3.53;;
22007;SDS011;11168;56.976;24.168;2023-06-14T03:47:08;6.18;;;3.45;;
22007;SDS011;11168;56.976;24.168;2023-06-14T03:49:35;6.78;;;3.40;;
22007;SDS011;11168;56.976;24.168;2023-06-14T03:52:03;7.72;;;3.33;;
22007;SDS011;11168;56.976;24.168;2023-06-14T03:54:30;7.72;;;3.38;;
22007;SDS011;11168;56.976;24.168;2023-06-14T03:57:19;4.82;;;3.22;;
22007;SDS011;11168;56.976;24.168;2023-06-14T03:59:49;6.25;;;3.25;;
22007;SDS011;11168;56.976;24.168;2023-06-14T04:02:16;8.93;;;3.40;;
22007;SDS011;11168;56.976;24.168;2023-06-14T04:04:44;5.05;;;2.88;;
22007;SDS011;11168;56.976;24.168;2023-06-14T04:07:12;8.77;;;2.97;;
22007;SDS011;11168;56.976;24.168;2023-06-14T04:09:39;8.15;;;3.30;;
22007;SDS011;11168;56.976;24.168;2023-06-14T04:12:07;7.88;;;3.60;;
22007;SDS011;11168;56.976;24.168;2023-06-14T04:14:42;7.50;;;3.88;;
22007;SDS011;11168;56.976;24.168;2023-06-14T04:17:09;5.18;;;2.90;;
22007;SDS011;11168;56.976;24.168;2023-06-14T04:19:36;6.85;;;3.10;;
22007;SDS011;11168;56.976;24.168;2023-06-14T04:24:55;5.38;;;2.92;;
22007;SDS011;11168;56.976;24.168;2023-06-14T04:27:30;5.35;;;2.95;;
22007;SDS011;11168;56.976;24.168;2023-06-14T04:30:00;8.57;;;3.33;;
22007;SDS011;11168;56.976;24.168;2023-06-14T04:32:29;8.45;;;3.00;;
22007;SDS011;11168;56.976;24.168;2023-06-14T04:37:30;6.15;;;2.80;;
22007;SDS011;11168;56.976;24.168;2023-06-14T04:39:57;9.32;;;3.10;;
22007;SDS011;11168;56.976;24.168;2023-06-14T04:42:24;7.32;;;3.30;;
22007;SDS011;11168;56.976;24.168;2023-06-14T04:44:57;9.98;;;3.38;;
22007;SDS011;11168;56.976;24.168;2023-06-14T04:47:24;7.05;;;3.10;;
22007;SDS011;11168;56.976;24.168;2023-06-14T04:49:51;5.35;;;3.30;;
22007;SDS011;11168;56.976;24.168;2023-06-14T04:52:19;6.57;;;3.35;;
22007;SDS011;11168;56.976;24.168;2023-06-14T04:54:47;5.38;;;2.90;;
22007;SDS011;11168;56.976;24.168;2023-06-14T04:57:15;7.70;;;3.05;;
22007;SDS011;11168;56.976;24.168;2023-06-14T04:59:43;3.95;;;2.78;;
22007;SDS011;11168;56.976;24.168;2023-06-14T05:02:11;6.30;;;3.17;;
22007;SDS011;11168;56.976;24.168;2023-06-14T05:04:38;8.65;;;3.13;;
22007;SDS011;11168;56.976;24.168;2023-06-14T05:07:08;6.57;;;2.85;;
22007;SDS011;11168;56.976;24.168;2023-06-14T05:09:36;9.73;;;2.95;;
22007;SDS011;11168;56.976;24.168;2023-06-14T05:12:03;4.38;;;2.88;;
22007;SDS011;11168;56.976;24.168;2023-06-14T05:14:31;6.85;;;2.83;;
22007;SDS011;11168;56.976;24.168;2023-06-14T05:16:58;9.63;;;3.00;;
22007;SDS011;11168;56.976;24.168;2023-06-14T05:19:25;10.00;;;2.80;;
22007;SDS011;11168;56.976;24.168;2023-06-14T05:21:52;4.47;;;2.95;;
22007;SDS011;11168;56.976;24.168;2023-06-14T05:24:20;3.72;;;2.78;;
22007;SDS011;11168;56.976;24.168;2023-06-14T05:26:47;3.60;;;2.40;;
22007;SDS011;11168;56.976;24.168;2023-06-14T05:29:39;6.25;;;2.75;;
22007;SDS011;11168;56.976;24.168;2023-06-14T05:32:06;6.80;;;3.03;;
22007;SDS011;11168;56.976;24.168;2023-06-14T05:34:35;6.53;;;3.10;;
22007;SDS011;11168;56.976;24.168;2023-06-14T05:37:02;6.53;;;3.22;;
22007;SDS011;11168;56.976;24.168;2023-06-14T05:39:30;5.95;;;2.53;;
22007;SDS011;11168;56.976;24.168;2023-06-14T05:41:57;6.35;;;3.00;;
22007;SDS011;11168;56.976;24.168;2023-06-14T05:44:24;8.23;;;2.88;;
22007;SDS011;11168;56.976;24.168;2023-06-14T05:46:51;11.23;;;2.83;;
22007;SDS011;11168;56.976;24.168;2023-06-14T05:49:17;6.25;;;2.60;;
22007;SDS011;11168;56.976;24.168;2023-06-14T05:54:41;8.43;;;2.80;;
22007;SDS011;11168;56.976;24.168;2023-06-14T05:57:07;16.33;;;10.73;;
22007;SDS011;11168;56.976;24.168;2023-06-14T05:59:34;18.17;;;11.93;;
22007;SDS011;11168;56.976;24.168;2023-06-14T06:02:02;7.13;;;3.58;;
22007;SDS011;11168;56.976;24.168;2023-06-14T06:04:29;5.90;;;2.50;;
22007;SDS011;11168;56.976;24.168;2023-06-14T06:06:56;4.18;;;2.80;;
22007;SDS011;11168;56.976;24.168;2023-06-14T06:09:23;6.93;;;3.00;;
22007;SDS011;11168;56.976;24.168;2023-06-14T06:11:50;9.57;;;2.92;;
22007;SDS011;11168;56.976;24.168;2023-06-14T06:14:19;8.68;;;2.97;;
22007;SDS011;11168;56.976;24.168;2023-06-14T06:16:46;8.48;;;2.80;;
22007;SDS011;11168;56.976;24.168;2023-06-14T06:19:14;3.83;;;2.63;;
22007;SDS011;11168;56.976;24.168;2023-06-14T06:21:41;3.63;;;2.70;;
22007;SDS011;11168;56.976;24.168;2023-06-14T06:24:09;5.50;;;2.80;;
22007;SDS011;11168;56.976;24.168;2023-06-14T06:26:36;4.80;;;3.13;;
22007;SDS011;11168;56.976;24.168;2023-06-14T06:29:03;4.55;;;2.67;;
22007;SDS011;11168;56.976;24.168;2023-06-14T06:31:37;5.97;;;2.90;;
22007;SDS011;11168;56.976;24.168;2023-06-14T06:34:04;11.68;;;3.33;;
22007;SDS011;11168;56.976;24.168;2023-06-14T06:36:31;6.20;;;2.80;;
22007;SDS011;11168;56.976;24.168;2023-06-14T06:38:58;4.97;;;2.67;;
22007;SDS011;11168;56.976;24.168;2023-06-14T06:41:25;6.88;;;2.80;;
22007;SDS011;11168;56.976;24.168;2023-06-14T06:43:53;5.82;;;2.65;;
22007;SDS011;11168;56.976;24.168;2023-06-14T06:46:21;8.52;;;2.90;;
22007;SDS011;11168;56.976;24.168;2023-06-14T06:48:48;4.75;;;2.65;;
22007;SDS011;11168;56.976;24.168;2023-06-14T06:51:15;4.10;;;2.25;;
22007;SDS011;11168;56.976;24.168;2023-06-14T06:53:43;7.90;;;2.70;;
22007;SDS011;11168;56.976;24.168;2023-06-14T06:56:14;5.60;;;2.30;;
22007;SDS011;11168;56.976;24.168;2023-06-14T06:58:41;2.00;;;1.83;;
22007;SDS011;11168;56.976;24.168;2023-06-14T07:01:08;4.68;;;2.35;;
22007;SDS011;11168;56.976;24.168;2023-06-14T07:03:35;4.05;;;2.60;;
22007;SDS011;11168;56.976;24.168;2023-06-14T07:06:02;4.60;;;2.75;;
22007;SDS011;11168;56.976;24.168;2023-06-14T07:08:30;8.45;;;2.70;;
22007;SDS011;11168;56.976;24.168;2023-06-14T07:10:57;5.47;;;2.67;;
22007;SDS011;11168;56.976;24.168;2023-06-14T07:13:23;7.10;;;2.78;;
22007;SDS011;11168;56.976;24.168;2023-06-14T07:15:53;5.68;;;2.45;;
22007;SDS011;11168;56.976;24.168;2023-06-14T07:20:48;3.60;;;2.47;;
22007;SDS011;11168;56.976;24.168;2023-06-14T07:23:16;4.07;;;2.53;;
22007;SDS011;11168;56.976;24.168;2023-06-14T07:25:43;4.85;;;2.35;;
22007;SDS011;11168;56.976;24.168;2023-06-14T07:28:10;2.75;;;2.40;;
22007;SDS011;11168;56.976;24.168;2023-06-14T07:30:37;3.15;;;2.55;;
22007;SDS011;11168;56.976;24.168;2023-06-14T07:33:04;7.72;;;2.60;;
22007;SDS011;11168;56.976;24.168;2023-06-14T07:35:32;6.47;;;2.53;;
22007;SDS011;11168;56.976;24.168;2023-06-14T07:40:49;3.15;;;2.40;;
22007;SDS011;11168;56.976;24.168;2023-06-14T07:43:16;8.55;;;3.10;;
22007;SDS011;11168;56.976;24.168;2023-06-14T07:45:45;3.97;;;2.40;;
22007;SDS011;11168;56.976;24.168;2023-06-14T07:48:31;5.35;;;2.28;;
22007;SDS011;11168;56.976;24.168;2023-06-14T07:50:59;3.15;;;2.30;;
22007;SDS011;11168;56.976;24.168;2023-06-14T07:53:27;9.63;;;2.38;;
22007;SDS011;11168;56.976;24.168;2023-06-14T07:55:54;3.58;;;2.55;;
22007;SDS011;11168;56.976;24.168;2023-06-14T07:58:24;3.47;;;2.38;;
22007;SDS011;11168;56.976;24.168;2023-06-14T08:00:51;3.78;;;2.00;;
22007;SDS011;11168;56.976;24.168;2023-06-14T08:03:19;3.97;;;2.70;;
22007;SDS011;11168;56.976;24.168;2023-06-14T08:05:46;4.63;;;2.85;;
22007;SDS011;11168;56.976;24.168;2023-06-14T08:08:13;4.10;;;2.67;;
22007;SDS011;11168;56.976;24.168;2023-06-14T08:10:40;4.05;;;2.40;;
22007;SDS011;11168;56.976;24.168;2023-06-14T08:13:07;7.30;;;2.40;;
22007;SDS011;11168;56.976;24.168;2023-06-14T08:15:35;6.30;;;2.40;;
22007;SDS011;11168;56.976;24.168;2023-06-14T08:18:02;5.78;;;2.15;;
22007;SDS011;11168;56.976;24.168;2023-06-14T08:20:30;5.53;;;2.47;;
22007;SDS011;11168;56.976;24.168;2023-06-14T08:22:58;6.32;;;2.50;;
22007;SDS011;11168;56.976;24.168;2023-06-14T08:25:25;4.60;;;2.40;;
22007;SDS011;11168;56.976;24.168;2023-06-14T08:27:52;3.33;;;2.50;;
22007;SDS011;11168;56.976;24.168;2023-06-14T08:30:19;5.03;;;2.65;;
22007;SDS011;11168;56.976;24.168;2023-06-14T08:32:46;5.28;;;2.60;;
22007;SDS011;11168;56.976;24.168;2023-06-14T08:35:21;5.35;;;2.53;;
22007;SDS011;11168;56.976;24.168;2023-06-14T08:37:49;4.57;;;2.42;;
22007;SDS011;11168;56.976;24.168;2023-06-14T08:40:22;3.83;;;2.40;;
22007;SDS011;11168;56.976;24.168;2023-06-14T08:42:51;3.88;;;2.53;;
22007;SDS011;11168;56.976;24.168;2023-06-14T08:45:19;7.35;;;2.53;;
22007;SDS011;11168;56.976;24.168;2023-06-14T08:47:52;4.45;;;2.58;;
22007;SDS011;11168;56.976;24.168;2023-06-14T08:50:26;4.28;;;2.55;;
22007;SDS011;11168;56.976;24.168;2023-06-14T08:52:58;3.47;;;2.30;;
22007;SDS011;11168;56.976;24.168;2023-06-14T08:55:28;6.03;;;2.65;;
22007;SDS011;11168;56.976;24.168;2023-06-14T08:58:02;3.33;;;2.60;;
22007;SDS011;11168;56.976;24.168;2023-06-14T09:00:30;3.38;;;2.40;;
22007;SDS011;11168;56.976;24.168;2023-06-14T09:02:59;6.60;;;2.60;;
22007;SDS011;11168;56.976;24.168;2023-06-14T09:05:27;3.35;;;2.45;;
22007;SDS011;11168;56.976;24.168;2023-06-14T09:07:55;3.20;;;2.60;;
22007;SDS011;11168;56.976;24.168;2023-06-14T09:10:23;6.38;;;2.72;;
22007;SDS011;11168;56.976;24.168;2023-06-14T09:12:53;4.23;;;2.83;;
22007;SDS011;11168;56.976;24.168;2023-06-14T09:15:20;2.92;;;2.60;;
22007;SDS011;11168;56.976;24.168;2023-06-14T09:17:47;4.90;;;2.78;;
22007;SDS011;11168;56.976;24.168;2023-06-14T09:20:14;3.95;;;2.80;;
22007;SDS011;11168;56.976;24.168;2023-06-14T09:22:46;4.90;;;2.80;;
22007;SDS011;11168;56.976;24.168;2023-06-14T09:25:13;5.40;;;3.05;;
22007;SDS011;11168;56.976;24.168;2023-06-14T09:28:01;4.30;;;2.88;;
22007;SDS011;11168;56.976;24.168;2023-06-14T09:30:28;5.55;;;2.45;;
22007;SDS011;11168;56.976;24.168;2023-06-14T09:32:55;3.60;;;2.80;;
22007;SDS011;11168;56.976;24.168;2023-06-14T09:35:26;3.42;;;2.83;;
22007;SDS011;11168;56.976;24.168;2023-06-14T09:37:56;3.58;;;2.90;;
22007;SDS011;11168;56.976;24.168;2023-06-14T09:40:23;7.10;;;3.25;;
22007;SDS011;11168;56.976;24.168;2023-06-14T09:42:51;4.13;;;3.10;;
22007;SDS011;11168;56.976;24.168;2023-06-14T09:45:42;8.95;;;3.10;;
22007;SDS011;11168;56.976;24.168;2023-06-14T09:48:12;7.07;;;3.10;;
22007;SDS011;11168;56.976;24.168;2023-06-14T09:50:47;5.35;;;3.15;;
22007;SDS011;11168;56.976;24.168;2023-06-14T09:53:16;4.32;;;3.22;;
22007;SDS011;11168;56.976;24.168;2023-06-14T09:55:49;5.97;;;3.10;;
22007;SDS011;11168;56.976;24.168;2023-06-14T09:58:19;4.45;;;2.90;;
22007;SDS011;11168;56.976;24.168;2023-06-14T10:00:49;7.22;;;3.25;;
22007;SDS011;11168;56.976;24.168;2023-06-14T10:03:21;4.13;;;3.10;;
22007;SDS011;11168;56.976;24.168;2023-06-14T10:06:02;4.97;;;2.90;;
22007;SDS011;11168;56.976;24.168;2023-06-14T10:08:33;5.93;;;2.60;;
22007;SDS011;11168;56.976;24.168;2023-06-14T10:11:03;4.03;;;2.47;;
22007;SDS011;11168;56.976;24.168;2023-06-14T10:13:31;4.50;;;2.95;;
22007;SDS011;11168;56.976;24.168;2023-06-14T10:21:36;3.42;;;3.00;;
22007;SDS011;11168;56.976;24.168;2023-06-14T10:24:05;4.32;;;2.90;;
22007;SDS011;11168;56.976;24.168;2023-06-14T10:26:34;4.20;;;2.78;;
22007;SDS011;11168;56.976;24.168;2023-06-14T10:29:07;5.50;;;3.28;;
22007;SDS011;11168;56.976;24.168;2023-06-14T10:34:12;5.22;;;3.40;;
22007;SDS011;11168;56.976;24.168;2023-06-14T10:37:03;4.30;;;2.92;;
22007;SDS011;11168;56.976;24.168;2023-06-14T10:39:30;5.20;;;3.10;;
22007;SDS011;11168;56.976;24.168;2023-06-14T10:41:58;4.43;;;3.28;;
22007;SDS011;11168;56.976;24.168;2023-06-14T10:44:32;8.00;;;3.30;;
22007;SDS011;11168;56.976;24.168;2023-06-14T10:47:23;6.15;;;3.20;;
22007;SDS011;11168;56.976;24.168;2023-06-14T10:52:38;7.65;;;3.00;;
22007;SDS011;11168;56.976;24.168;2023-06-14T10:55:13;4.50;;;2.60;;
22007;SDS011;11168;56.976;24.168;2023-06-14T10:57:53;4.88;;;3.00;;
22007;SDS011;11168;56.976;24.168;2023-06-14T11:00:25;6.63;;;3.15;;
22007;SDS011;11168;56.976;24.168;2023-06-14T11:05:58;4.78;;;3.00;;
22007;SDS011;11168;56.976;24.168;2023-06-14T11:11:11;8.00;;;3.05;;
22007;SDS011;11168;56.976;24.168;2023-06-14T11:13:41;7.75;;;3.30;;
22007;SDS011;11168;56.976;24.168;2023-06-14T11:16:12;7.85;;;3.38;;
22007;SDS011;11168;56.976;24.168;2023-06-14T11:18:45;8.30;;;3.00;;
22007;SDS011;11168;56.976;24.168;2023-06-14T11:21:16;6.00;;;2.90;;
22007;SDS011;11168;56.976;24.168;2023-06-14T11:23:53;5.05;;;3.00;;
22007;SDS011;11168;56.976;24.168;2023-06-14T11:26:31;7.07;;;2.90;;
22007;SDS011;11168;56.976;24.168;2023-06-14T11:29:00;6.40;;;2.50;;
22007;SDS011;11168;56.976;24.168;2023-06-14T11:31:28;7.15;;;2.70;;
22007;SDS011;11168;56.976;24.168;2023-06-14T11:33:56;6.22;;;3.05;;
22007;SDS011;11168;56.976;24.168;2023-06-14T11:36:28;6.10;;;2.88;;
22007;SDS011;11168;56.976;24.168;2023-06-14T11:39:04;5.13;;;2.70;;
22007;SDS011;11168;56.976;24.168;2023-06-14T11:41:34;12.02;;;2.90;;
22007;SDS011;11168;56.976;24.168;2023-06-14T11:44:17;8.07;;;2.53;;
22007;SDS011;11168;56.976;24.168;2023-06-14T11:46:44;6.13;;;2.70;;
22007;SDS011;11168;56.976;24.168;2023-06-14T11:49:11;7.65;;;2.53;;
22007;SDS011;11168;56.976;24.168;2023-06-14T11:51:38;5.03;;;2.50;;
22007;SDS011;11168;56.976;24.168;2023-06-14T11:54:06;4.43;;;2.50;;
22007;SDS011;11168;56.976;24.168;2023-06-14T11:56:34;5.40;;;2.22;;
22007;SDS011;11168;56.976;24.168;2023-06-14T11:59:03;5.35;;;2.58;;
22007;SDS011;11168;56.976;24.168;2023-06-14T12:01:35;7.60;;;2.40;;
22007;SDS011;11168;56.976;24.168;2023-06-14T12:04:05;4.80;;;2.63;;
22007;SDS011;11168;56.976;24.168;2023-06-14T12:06:33;4.28;;;2.15;;
22007;SDS011;11168;56.976;24.168;2023-06-14T12:09:07;5.00;;;2.65;;
22007;SDS011;11168;56.976;24.168;2023-06-14T12:11:39;4.88;;;2.30;;
22007;SDS011;11168;56.976;24.168;2023-06-14T12:14:08;6.78;;;2.40;;
22007;SDS011;11168;56.976;24.168;2023-06-14T12:16:36;9.65;;;2.55;;
22007;SDS011;11168;56.976;24.168;2023-06-14T12:19:14;5.32;;;2.10;;
22007;SDS011;11168;56.976;24.168;2023-06-14T12:21:43;5.85;;;2.03;;
22007;SDS011;11168;56.976;24.168;2023-06-14T12:24:15;3.72;;;2.55;;
22007;SDS011;11168;56.976;24.168;2023-06-14T12:26:43;5.20;;;2.60;;
22007;SDS011;11168;56.976;24.168;2023-06-14T12:29:10;3.88;;;2.30;;
22007;SDS011;11168;56.976;24.168;2023-06-14T12:31:39;5.22;;;2.67;;
22007;SDS011;11168;56.976;24.168;2023-06-14T12:34:07;5.88;;;2.70;;
22007;SDS011;11168;56.976;24.168;2023-06-14T12:36:34;2.92;;;2.30;;
22007;SDS011;11168;56.976;24.168;2023-06-14T12:39:06;6.40;;;2.63;;
22007;SDS011;11168;56.976;24.168;2023-06-14T12:41:34;4.32;;;2.45;;
22007;SDS011;11168;56.976;24.168;2023-06-14T12:44:03;6.40;;;2.42;;
22007;SDS011;11168;56.976;24.168;2023-06-14T12:46:30;4.32;;;2.20;;
22007;SDS011;11168;56.976;24.168;2023-06-14T12:48:58;5.85;;;2.28;;
22007;SDS011;11168;56.976;24.168;2023-06-14T12:51:26;4.07;;;2.45;;
22007;SDS011;11168;56.976;24.168;2023-06-14T12:53:53;3.20;;;2.28;;
22007;SDS011;11168;56.976;24.168;2023-06-14T12:56:20;5.50;;;2.20;;
22007;SDS011;11168;56.976;24.168;2023-06-14T12:58:50;4.78;;;2.55;;
22007;SDS011;11168;56.976;24.168;2023-06-14T13:01:17;7.75;;;2.65;;
22007;SDS011;11168;56.976;24.168;2023-06-14T13:03:44;4.85;;;2.33;;
22007;SDS011;11168;56.976;24.168;2023-06-14T13:06:13;5.60;;;2.28;;
22007;SDS011;11168;56.976;24.168;2023-06-14T13:08:40;7.07;;;2.42;;
22007;SDS011;11168;56.976;24.168;2023-06-14T13:11:07;7.55;;;2.40;;
22007;SDS011;11168;56.976;24.168;2023-06-14T13:13:34;6.78;;;2.50;;
22007;SDS011;11168;56.976;24.168;2023-06-14T13:16:01;7.55;;;2.30;;
22007;SDS011;11168;56.976;24.168;2023-06-14T13:18:28;4.72;;;1.95;;
22007;SDS011;11168;56.976;24.168;2023-06-14T13:20:55;5.90;;;2.13;;
22007;SDS011;11168;56.976;24.168;2023-06-14T13:23:22;4.10;;;2.33;;
22007;SDS011;11168;56.976;24.168;2023-06-14T13:25:50;6.55;;;2.72;;
22007;SDS011;11168;56.976;24.168;2023-06-14T13:28:17;8.23;;;2.40;;
22007;SDS011;11168;56.976;24.168;2023-06-14T13:30:44;5.55;;;2.60;;
22007;SDS011;11168;56.976;24.168;2023-06-14T13:33:11;5.70;;;2.67;;
22007;SDS011;11168;56.976;24.168;2023-06-14T13:35:39;6.65;;;2.38;;
22007;SDS011;11168;56.976;24.168;2023-06-14T13:38:06;3.20;;;2.20;;
22007;SDS011;11168;56.976;24.168;2023-06-14T13:40:35;5.50;;;2.42;;
22007;SDS011;11168;56.976;24.168;2023-06-14T13:43:02;7.22;;;2.92;;
22007;SDS011;11168;56.976;24.168;2023-06-14T13:45:29;6.57;;;2.30;;
22007;SDS011;11168;56.976;24.168;2023-06-14T13:47:55;5.82;;;2.30;;
22007;SDS011;11168;56.976;24.168;2023-06-14T13:50:22;5.05;;;2.10;;
22007;SDS011;11168;56.976;24.168;2023-06-14T13:52:49;3.80;;;2.38;;
22007;SDS011;11168;56.976;24.168;2023-06-14T13:55:16;6.50;;;2.42;;
22007;SDS011;11168;56.976;24.168;2023-06-14T13:57:43;8.60;;;2.45;;
22007;SDS011;11168;56.976;24.168;2023-06-14T14:00:11;4.40;;;2.40;;
22007;SDS011;11168;56.976;24.168;2023-06-14T14:02:39;8.70;;;2.60;;
22007;SDS011;11168;56.976;24.168;2023-06-14T14:05:06;8.20;;;2.33;;
22007;SDS011;11168;56.976;24.168;2023-06-14T14:07:34;6.80;;;2.60;;
22007;SDS011;11168;56.976;24.168;2023-06-14T14:10:02;4.35;;;2.40;;
22007;SDS011;11168;56.976;24.168;2023-06-14T14:12:30;6.03;;;2.55;;
22007;SDS011;11168;56.976;24.168;2023-06-14T14:14:57;5.35;;;2.40;;
22007;SDS011;11168;56.976;24.168;2023-06-14T14:17:25;7.50;;;2.92;;
22007;SDS011;11168;56.976;24.168;2023-06-14T14:19:52;4.45;;;2.10;;
22007;SDS011;11168;56.976;24.168;2023-06-14T14:22:19;4.22;;;2.35;;
22007;SDS011;11168;56.976;24.168;2023-06-14T14:24:46;4.80;;;2.30;;
22007;SDS011;11168;56.976;24.168;2023-06-14T14:27:13;10.65;;;2.78;;
22007;SDS011;11168;56.976;24.168;2023-06-14T14:29:40;6.13;;;2.42;;
22007;SDS011;11168;56.976;24.168;2023-06-14T14:32:07;4.68;;;2.35;;
22007;SDS011;11168;56.976;24.168;2023-06-14T14:34:36;4.50;;;2.45;;
22007;SDS011;11168;56.976;24.168;2023-06-14T14:37:03;4.53;;;2.30;;
22007;SDS011;11168;56.976;24.168;2023-06-14T14:39:31;13.23;;;2.72;;
22007;SDS011;11168;56.976;24.168;2023-06-14T14:41:58;10.75;;;3.00;;
22007;SDS011;11168;56.976;24.168;2023-06-14T14:44:26;9.93;;;2.63;;
22007;SDS011;11168;56.976;24.168;2023-06-14T14:46:52;4.60;;;2.42;;
22007;SDS011;11168;56.976;24.168;2023-06-14T14:49:20;5.85;;;3.03;;
22007;SDS011;11168;56.976;24.168;2023-06-14T14:51:46;6.90;;;2.50;;
22007;SDS011;11168;56.976;24.168;2023-06-14T14:54:13;8.00;;;2.60;;
22007;SDS011;11168;56.976;24.168;2023-06-14T14:56:40;3.05;;;2.50;;
22007;SDS011;11168;56.976;24.168;2023-06-14T14:59:07;4.75;;;2.60;;
22007;SDS011;11168;56.976;24.168;2023-06-14T15:01:34;5.78;;;2.70;;
22007;SDS011;11168;56.976;24.168;2023-06-14T15:04:01;3.47;;;2.42;;
22007;SDS011;11168;56.976;24.168;2023-06-14T15:06:29;7.55;;;2.80;;
22007;SDS011;11168;56.976;24.168;2023-06-14T15:08:56;7.78;;;2.53;;
22007;SDS011;11168;56.976;24.168;2023-06-14T15:11:23;6.70;;;2.78;;
22007;SDS011;11168;56.976;24.168;2023-06-14T15:13:50;5.60;;;3.00;;
22007;SDS011;11168;56.976;24.168;2023-06-14T15:16:17;6.40;;;2.53;;
22007;SDS011;11168;56.976;24.168;2023-06-14T15:18:44;9.55;;;2.50;;
22007;SDS011;11168;56.976;24.168;2023-06-14T15:21:12;8.38;;;2.40;;